sensor_id;sensor_type;location;lat;lon;timestamp;P1;durP1;ratioP1;P2;durP2;ratioP2
75021;SDS011;63583;49.976;20.182;2023-03-29T00:01:34;3.50;;;2.40;;
75021;SDS011;63583;49.976;20.182;2023-03-29T00:04:01;4.22;;;2.40;;
75021;SDS011;63583;49.976;20.182;2023-03-29T00:06:28;5.88;;;3.00;;
75021;SDS011;63583;49.976;20.182;2023-03-29T00:08:57;3.53;;;2.00;;
75021;SDS011;63583;49.976;20.182;2023-03-29T00:11:24;2.75;;;1.55;;
75021;SDS011;63583;49.976;20.182;2023-03-29T00:13:50;6.53;;;1.80;;
75021;SDS011;63583;49.976;20.182;2023-03-29T00:16:16;2.95;;;1.92;;
75021;SDS011;63583;49.976;20.182;2023-03-29T00:18:43;5.68;;;2.80;;
75021;SDS011;63583;49.976;20.182;2023-03-29T00:21:09;3.92;;;1.95;;
75021;SDS011;63583;49.976;20.182;2023-03-29T00:23:35;11.15;;;2.92;;
75021;SDS011;63583;49.976;20.182;2023-03-29T00:26:01;4.28;;;2.15;;
75021;SDS011;63583;49.976;20.182;2023-03-29T00:28:27;4.95;;;1.95;;
75021;SDS011;63583;49.976;20.182;2023-03-29T00:30:52;3.88;;;1.75;;
75021;SDS011;63583;49.976;20.182;2023-03-29T00:33:18;8.02;;;2.92;;
75021;SDS011;63583;49.976;20.182;2023-03-29T00:35:45;4.72;;;2.20;;
75021;SDS011;63583;49.976;20.182;2023-03-29T00:38:15;2.78;;;1.88;;
75021;SDS011;63583;49.976;20.182;2023-03-29T00:40:42;6.72;;;1.90;;
75021;SDS011;63583;49.976;20.182;2023-03-29T00:43:10;5.22;;;2.88;;
75021;SDS011;63583;49.976;20.182;2023-03-29T00:45:36;4.55;;;2.20;;
75021;SDS011;63583;49.976;20.182;2023-03-29T00:48:04;12.18;;;2.25;;
75021;SDS011;63583;49.976;20.182;2023-03-29T00:53:09;2.22;;;1.63;;
75021;SDS011;63583;49.976;20.182;2023-03-29T00:55:38;4.53;;;2.67;;
75021;SDS011;63583;49.976;20.182;2023-03-29T00:58:08;6.82;;;2.55;;
75021;SDS011;63583;49.976;20.182;2023-03-29T01:03:08;2.00;;;1.48;;
75021;SDS011;63583;49.976;20.182;2023-03-29T01:05:48;4.25;;;2.63;;
75021;SDS011;63583;49.976;20.182;2023-03-29T01:08:19;3.70;;;2.00;;
75021;SDS011;63583;49.976;20.182;2023-03-29T01:13:43;3.80;;;1.80;;
75021;SDS011;63583;49.976;20.182;2023-03-29T01:16:16;6.30;;;2.40;;
75021;SDS011;63583;49.976;20.182;2023-03-29T01:18:44;3.83;;;2.08;;
75021;SDS011;63583;49.976;20.182;2023-03-29T01:29:27;5.57;;;2.60;;
75021;SDS011;63583;49.976;20.182;2023-03-29T01:31:58;5.75;;;2.25;;
75021;SDS011;63583;49.976;20.182;2023-03-29T01:34:34;6.72;;;3.35;;
75021;SDS011;63583;49.976;20.182;2023-03-29T01:37:32;5.35;;;2.28;;
75021;SDS011;63583;49.976;20.182;2023-03-29T01:40:03;4.32;;;2.08;;
75021;SDS011;63583;49.976;20.182;2023-03-29T01:45:12;9.57;;;2.75;;
75021;SDS011;63583;49.976;20.182;2023-03-29T01:56:27;4.13;;;2.03;;
75021;SDS011;63583;49.976;20.182;2023-03-29T01:58:56;7.72;;;3.03;;
75021;SDS011;63583;49.976;20.182;2023-03-29T02:01:27;6.90;;;2.33;;
75021;SDS011;63583;49.976;20.182;2023-03-29T02:03:56;9.43;;;2.72;;
75021;SDS011;63583;49.976;20.182;2023-03-29T02:06:27;6.10;;;2.90;;
75021;SDS011;63583;49.976;20.182;2023-03-29T02:08:55;5.40;;;2.67;;
75021;SDS011;63583;49.976;20.182;2023-03-29T02:11:22;6.63;;;2.47;;
75021;SDS011;63583;49.976;20.182;2023-03-29T02:16:16;4.28;;;2.20;;
75021;SDS011;63583;49.976;20.182;2023-03-29T02:18:44;4.05;;;2.08;;
75021;SDS011;63583;49.976;20.182;2023-03-29T02:21:14;3.75;;;2.30;;
75021;SDS011;63583;49.976;20.182;2023-03-29T02:23:45;3.75;;;2.30;;
75021;SDS011;63583;49.976;20.182;2023-03-29T02:26:13;5.50;;;2.53;;
75021;SDS011;63583;49.976;20.182;2023-03-29T02:28:40;3.55;;;2.42;;
75021;SDS011;63583;49.976;20.182;2023-03-29T02:31:11;5.20;;;2.78;;
75021;SDS011;63583;49.976;20.182;2023-03-29T02:36:19;10.55;;;3.45;;
75021;SDS011;63583;49.976;20.182;2023-03-29T02:38:52;4.75;;;2.95;;
75021;SDS011;63583;49.976;20.182;2023-03-29T02:41:19;4.13;;;2.58;;
75021;SDS011;63583;49.976;20.182;2023-03-29T02:43:47;4.22;;;2.60;;
75021;SDS011;63583;49.976;20.182;2023-03-29T02:46:14;2.88;;;1.67;;
75021;SDS011;63583;49.976;20.182;2023-03-29T02:48:42;6.35;;;2.85;;
75021;SDS011;63583;49.976;20.182;2023-03-29T02:51:17;11.73;;;2.85;;
75021;SDS011;63583;49.976;20.182;2023-03-29T02:54:08;3.53;;;1.73;;
75021;SDS011;63583;49.976;20.182;2023-03-29T02:56:42;2.72;;;1.80;;
75021;SDS011;63583;49.976;20.182;2023-03-29T02:59:09;7.68;;;3.58;;
75021;SDS011;63583;49.976;20.182;2023-03-29T03:01:37;7.00;;;3.17;;
75021;SDS011;63583;49.976;20.182;2023-03-29T03:04:03;8.43;;;3.90;;
75021;SDS011;63583;49.976;20.182;2023-03-29T03:06:29;5.22;;;2.65;;
75021;SDS011;63583;49.976;20.182;2023-03-29T03:08:55;7.32;;;3.25;;
75021;SDS011;63583;49.976;20.182;2023-03-29T03:11:21;2.72;;;2.13;;
75021;SDS011;63583;49.976;20.182;2023-03-29T03:13:48;4.80;;;2.92;;
75021;SDS011;63583;49.976;20.182;2023-03-29T03:16:13;9.75;;;3.15;;
75021;SDS011;63583;49.976;20.182;2023-03-29T03:18:39;3.33;;;2.22;;
75021;SDS011;63583;49.976;20.182;2023-03-29T03:21:05;6.97;;;3.38;;
75021;SDS011;63583;49.976;20.182;2023-03-29T03:23:30;5.80;;;3.03;;
75021;SDS011;63583;49.976;20.182;2023-03-29T03:25:56;5.68;;;3.17;;
75021;SDS011;63583;49.976;20.182;2023-03-29T03:28:23;4.13;;;2.75;;
75021;SDS011;63583;49.976;20.182;2023-03-29T03:30:51;3.10;;;1.77;;
75021;SDS011;63583;49.976;20.182;2023-03-29T03:33:17;8.20;;;2.50;;
75021;SDS011;63583;49.976;20.182;2023-03-29T03:35:43;3.42;;;2.30;;
75021;SDS011;63583;49.976;20.182;2023-03-29T03:38:10;5.90;;;2.72;;
75021;SDS011;63583;49.976;20.182;2023-03-29T03:40:36;4.93;;;2.63;;
75021;SDS011;63583;49.976;20.182;2023-03-29T03:43:02;3.75;;;2.28;;
75021;SDS011;63583;49.976;20.182;2023-03-29T03:45:28;2.85;;;1.75;;
75021;SDS011;63583;49.976;20.182;2023-03-29T03:47:54;5.72;;;2.70;;
75021;SDS011;63583;49.976;20.182;2023-03-29T03:50:20;6.80;;;3.08;;
75021;SDS011;63583;49.976;20.182;2023-03-29T03:52:45;3.38;;;2.22;;
75021;SDS011;63583;49.976;20.182;2023-03-29T03:55:11;8.20;;;3.50;;
75021;SDS011;63583;49.976;20.182;2023-03-29T03:57:37;5.70;;;1.73;;
75021;SDS011;63583;49.976;20.182;2023-03-29T04:00:03;4.95;;;2.28;;
75021;SDS011;63583;49.976;20.182;2023-03-29T04:02:43;6.45;;;2.85;;
75021;SDS011;63583;49.976;20.182;2023-03-29T04:05:10;8.60;;;2.83;;
75021;SDS011;63583;49.976;20.182;2023-03-29T04:07:36;10.57;;;3.78;;
75021;SDS011;63583;49.976;20.182;2023-03-29T04:10:02;3.50;;;2.95;;
75021;SDS011;63583;49.976;20.182;2023-03-29T04:12:28;6.90;;;2.28;;
75021;SDS011;63583;49.976;20.182;2023-03-29T04:14:54;5.32;;;2.90;;
75021;SDS011;63583;49.976;20.182;2023-03-29T04:17:20;3.15;;;1.73;;
75021;SDS011;63583;49.976;20.182;2023-03-29T04:19:46;5.03;;;3.15;;
75021;SDS011;63583;49.976;20.182;2023-03-29T04:22:11;5.57;;;2.28;;
75021;SDS011;63583;49.976;20.182;2023-03-29T04:24:37;6.15;;;3.85;;
75021;SDS011;63583;49.976;20.182;2023-03-29T04:27:02;7.45;;;4.60;;
75021;SDS011;63583;49.976;20.182;2023-03-29T04:29:28;6.38;;;3.80;;
75021;SDS011;63583;49.976;20.182;2023-03-29T04:31:54;6.18;;;3.55;;
75021;SDS011;63583;49.976;20.182;2023-03-29T04:34:20;5.05;;;2.72;;
75021;SDS011;63583;49.976;20.182;2023-03-29T04:36:46;3.75;;;2.78;;
75021;SDS011;63583;49.976;20.182;2023-03-29T04:39:15;4.85;;;2.95;;
75021;SDS011;63583;49.976;20.182;2023-03-29T04:41:42;7.70;;;2.72;;
75021;SDS011;63583;49.976;20.182;2023-03-29T04:44:09;7.43;;;2.47;;
75021;SDS011;63583;49.976;20.182;2023-03-29T04:46:34;6.85;;;3.20;;
75021;SDS011;63583;49.976;20.182;2023-03-29T04:49:02;8.95;;;3.90;;
75021;SDS011;63583;49.976;20.182;2023-03-29T04:51:27;6.43;;;3.83;;
75021;SDS011;63583;49.976;20.182;2023-03-29T04:53:54;4.93;;;3.22;;
75021;SDS011;63583;49.976;20.182;2023-03-29T04:56:19;4.55;;;2.60;;
75021;SDS011;63583;49.976;20.182;2023-03-29T04:58:45;7.47;;;2.85;;
75021;SDS011;63583;49.976;20.182;2023-03-29T05:01:10;7.85;;;3.72;;
75021;SDS011;63583;49.976;20.182;2023-03-29T05:03:37;8.38;;;3.95;;
75021;SDS011;63583;49.976;20.182;2023-03-29T05:06:06;6.00;;;3.65;;
75021;SDS011;63583;49.976;20.182;2023-03-29T05:08:33;7.15;;;3.95;;
75021;SDS011;63583;49.976;20.182;2023-03-29T05:11:03;5.45;;;2.63;;
75021;SDS011;63583;49.976;20.182;2023-03-29T05:13:33;6.97;;;3.05;;
75021;SDS011;63583;49.976;20.182;2023-03-29T05:15:59;6.03;;;2.40;;
75021;SDS011;63583;49.976;20.182;2023-03-29T05:18:25;9.55;;;2.50;;
75021;SDS011;63583;49.976;20.182;2023-03-29T05:20:51;7.95;;;2.65;;
75021;SDS011;63583;49.976;20.182;2023-03-29T05:23:20;6.45;;;2.72;;
75021;SDS011;63583;49.976;20.182;2023-03-29T05:25:49;4.93;;;2.58;;
75021;SDS011;63583;49.976;20.182;2023-03-29T05:28:15;5.22;;;2.67;;
75021;SDS011;63583;49.976;20.182;2023-03-29T05:30:42;6.18;;;3.10;;
75021;SDS011;63583;49.976;20.182;2023-03-29T05:33:08;5.13;;;2.60;;
75021;SDS011;63583;49.976;20.182;2023-03-29T05:35:34;6.68;;;3.42;;
75021;SDS011;63583;49.976;20.182;2023-03-29T05:38:01;6.53;;;3.83;;
75021;SDS011;63583;49.976;20.182;2023-03-29T05:40:28;7.88;;;2.83;;
75021;SDS011;63583;49.976;20.182;2023-03-29T05:42:56;6.53;;;2.97;;
75021;SDS011;63583;49.976;20.182;2023-03-29T05:45:22;7.93;;;2.83;;
75021;SDS011;63583;49.976;20.182;2023-03-29T05:47:49;4.18;;;2.53;;
75021;SDS011;63583;49.976;20.182;2023-03-29T05:50:15;7.55;;;3.10;;
75021;SDS011;63583;49.976;20.182;2023-03-29T05:52:41;2.90;;;2.53;;
75021;SDS011;63583;49.976;20.182;2023-03-29T05:55:07;8.07;;;2.97;;
75021;SDS011;63583;49.976;20.182;2023-03-29T05:57:34;5.75;;;2.97;;
75021;SDS011;63583;49.976;20.182;2023-03-29T06:00:02;8.48;;;3.30;;
75021;SDS011;63583;49.976;20.182;2023-03-29T06:02:42;11.50;;;3.70;;
75021;SDS011;63583;49.976;20.182;2023-03-29T06:05:07;7.80;;;2.90;;
75021;SDS011;63583;49.976;20.182;2023-03-29T06:07:33;6.88;;;3.25;;
75021;SDS011;63583;49.976;20.182;2023-03-29T06:10:00;5.65;;;2.28;;
75021;SDS011;63583;49.976;20.182;2023-03-29T06:12:27;3.83;;;2.35;;
75021;SDS011;63583;49.976;20.182;2023-03-29T06:14:52;6.07;;;2.55;;
75021;SDS011;63583;49.976;20.182;2023-03-29T06:17:19;6.25;;;2.67;;
75021;SDS011;63583;49.976;20.182;2023-03-29T06:19:44;2.75;;;1.63;;
75021;SDS011;63583;49.976;20.182;2023-03-29T06:22:10;3.95;;;2.55;;
75021;SDS011;63583;49.976;20.182;2023-03-29T06:24:36;3.67;;;1.55;;
75021;SDS011;63583;49.976;20.182;2023-03-29T06:27:01;4.75;;;2.17;;
75021;SDS011;63583;49.976;20.182;2023-03-29T06:29:27;5.60;;;2.80;;
75021;SDS011;63583;49.976;20.182;2023-03-29T06:31:53;6.03;;;2.60;;
75021;SDS011;63583;49.976;20.182;2023-03-29T06:34:20;4.22;;;2.22;;
75021;SDS011;63583;49.976;20.182;2023-03-29T06:36:46;4.60;;;2.20;;
75021;SDS011;63583;49.976;20.182;2023-03-29T06:39:15;4.60;;;2.03;;
75021;SDS011;63583;49.976;20.182;2023-03-29T06:41:40;5.55;;;3.03;;
75021;SDS011;63583;49.976;20.182;2023-03-29T06:44:06;2.95;;;1.73;;
75021;SDS011;63583;49.976;20.182;2023-03-29T06:46:33;4.35;;;2.03;;
75021;SDS011;63583;49.976;20.182;2023-03-29T06:48:58;3.92;;;2.08;;
75021;SDS011;63583;49.976;20.182;2023-03-29T06:51:24;5.13;;;2.22;;
75021;SDS011;63583;49.976;20.182;2023-03-29T06:53:50;2.25;;;1.38;;
75021;SDS011;63583;49.976;20.182;2023-03-29T06:56:16;4.65;;;2.33;;
75021;SDS011;63583;49.976;20.182;2023-03-29T06:58:41;5.50;;;2.50;;
75021;SDS011;63583;49.976;20.182;2023-03-29T07:01:09;6.18;;;2.25;;
75021;SDS011;63583;49.976;20.182;2023-03-29T07:03:35;5.10;;;2.60;;
75021;SDS011;63583;49.976;20.182;2023-03-29T07:06:03;5.25;;;1.90;;
75021;SDS011;63583;49.976;20.182;2023-03-29T07:08:37;4.47;;;2.00;;
75021;SDS011;63583;49.976;20.182;2023-03-29T07:11:11;4.13;;;1.92;;
75021;SDS011;63583;49.976;20.182;2023-03-29T07:13:39;4.38;;;2.00;;
75021;SDS011;63583;49.976;20.182;2023-03-29T07:16:07;3.17;;;1.77;;
75021;SDS011;63583;49.976;20.182;2023-03-29T07:18:40;4.28;;;2.40;;
75021;SDS011;63583;49.976;20.182;2023-03-29T07:21:07;3.58;;;1.83;;
75021;SDS011;63583;49.976;20.182;2023-03-29T07:23:33;3.85;;;2.25;;
75021;SDS011;63583;49.976;20.182;2023-03-29T07:25:59;7.90;;;1.90;;
75021;SDS011;63583;49.976;20.182;2023-03-29T07:28:25;4.13;;;1.98;;
75021;SDS011;63583;49.976;20.182;2023-03-29T07:30:51;3.42;;;1.88;;
75021;SDS011;63583;49.976;20.182;2023-03-29T07:33:17;6.35;;;2.38;;
75021;SDS011;63583;49.976;20.182;2023-03-29T07:35:44;3.63;;;1.52;;
75021;SDS011;63583;49.976;20.182;2023-03-29T07:38:12;5.25;;;2.47;;
75021;SDS011;63583;49.976;20.182;2023-03-29T07:40:39;4.45;;;1.65;;
75021;SDS011;63583;49.976;20.182;2023-03-29T07:43:05;4.68;;;1.80;;
75021;SDS011;63583;49.976;20.182;2023-03-29T07:45:33;4.72;;;1.70;;
75021;SDS011;63583;49.976;20.182;2023-03-29T07:47:59;4.32;;;2.03;;
75021;SDS011;63583;49.976;20.182;2023-03-29T07:50:26;6.10;;;2.20;;
75021;SDS011;63583;49.976;20.182;2023-03-29T07:52:52;4.07;;;2.17;;
75021;SDS011;63583;49.976;20.182;2023-03-29T07:55:18;3.35;;;2.20;;
75021;SDS011;63583;49.976;20.182;2023-03-29T07:57:43;3.38;;;1.73;;
75021;SDS011;63583;49.976;20.182;2023-03-29T08:00:10;3.50;;;1.55;;
75021;SDS011;63583;49.976;20.182;2023-03-29T08:02:40;2.83;;;1.40;;
75021;SDS011;63583;49.976;20.182;2023-03-29T08:05:08;3.92;;;2.00;;
75021;SDS011;63583;49.976;20.182;2023-03-29T08:07:34;3.63;;;1.77;;
75021;SDS011;63583;49.976;20.182;2023-03-29T08:10:00;3.22;;;1.55;;
75021;SDS011;63583;49.976;20.182;2023-03-29T08:12:26;3.40;;;1.50;;
75021;SDS011;63583;49.976;20.182;2023-03-29T08:14:52;3.95;;;1.80;;
75021;SDS011;63583;49.976;20.182;2023-03-29T08:17:17;4.22;;;1.77;;
75021;SDS011;63583;49.976;20.182;2023-03-29T08:19:43;2.38;;;1.35;;
75021;SDS011;63583;49.976;20.182;2023-03-29T08:22:08;3.40;;;1.58;;
75021;SDS011;63583;49.976;20.182;2023-03-29T08:24:35;2.50;;;1.15;;
75021;SDS011;63583;49.976;20.182;2023-03-29T08:27:01;3.38;;;1.52;;
75021;SDS011;63583;49.976;20.182;2023-03-29T08:29:26;3.45;;;1.73;;
75021;SDS011;63583;49.976;20.182;2023-03-29T08:31:53;1.75;;;1.00;;
75021;SDS011;63583;49.976;20.182;2023-03-29T08:34:20;2.22;;;1.02;;
75021;SDS011;63583;49.976;20.182;2023-03-29T08:36:46;2.60;;;1.25;;
75021;SDS011;63583;49.976;20.182;2023-03-29T08:39:11;2.58;;;1.15;;
75021;SDS011;63583;49.976;20.182;2023-03-29T08:49:53;2.80;;;1.23;;
75021;SDS011;63583;49.976;20.182;2023-03-29T08:52:29;2.20;;;1.20;;
75021;SDS011;63583;49.976;20.182;2023-03-29T08:57:28;1.27;;;0.63;;
75021;SDS011;63583;49.976;20.182;2023-03-29T08:59:57;3.55;;;1.30;;
75021;SDS011;63583;49.976;20.182;2023-03-29T09:02:26;4.18;;;1.20;;
75021;SDS011;63583;49.976;20.182;2023-03-29T09:04:57;2.83;;;1.50;;
75021;SDS011;63583;49.976;20.182;2023-03-29T09:07:30;3.15;;;1.35;;
75021;SDS011;63583;49.976;20.182;2023-03-29T09:09:55;2.00;;;1.13;;
75021;SDS011;63583;49.976;20.182;2023-03-29T09:25:21;2.20;;;1.40;;
75021;SDS011;63583;49.976;20.182;2023-03-29T09:28:03;2.53;;;1.63;;
75021;SDS011;63583;49.976;20.182;2023-03-29T09:30:47;2.67;;;1.52;;
75021;SDS011;63583;49.976;20.182;2023-03-29T09:33:27;3.10;;;1.63;;
75021;SDS011;63583;49.976;20.182;2023-03-29T09:36:05;3.05;;;1.63;;
75021;SDS011;63583;49.976;20.182;2023-03-29T09:38:33;4.43;;;1.70;;
75021;SDS011;63583;49.976;20.182;2023-03-29T09:41:20;1.98;;;0.93;;
75021;SDS011;63583;49.976;20.182;2023-03-29T09:43:50;1.63;;;0.82;;
75021;SDS011;63583;49.976;20.182;2023-03-29T09:46:28;2.55;;;0.95;;
75021;SDS011;63583;49.976;20.182;2023-03-29T09:49:05;2.08;;;1.05;;
75021;SDS011;63583;49.976;20.182;2023-03-29T09:51:36;1.83;;;0.85;;
75021;SDS011;63583;49.976;20.182;2023-03-29T09:54:03;1.75;;;0.82;;
75021;SDS011;63583;49.976;20.182;2023-03-29T09:56:28;2.55;;;1.30;;
75021;SDS011;63583;49.976;20.182;2023-03-29T09:58:54;2.95;;;1.40;;
75021;SDS011;63583;49.976;20.182;2023-03-29T10:01:20;1.95;;;1.00;;
75021;SDS011;63583;49.976;20.182;2023-03-29T10:03:47;2.35;;;1.40;;
75021;SDS011;63583;49.976;20.182;2023-03-29T10:06:15;3.20;;;1.42;;
75021;SDS011;63583;49.976;20.182;2023-03-29T10:08:52;1.58;;;0.85;;
75021;SDS011;63583;49.976;20.182;2023-03-29T10:11:21;1.65;;;0.85;;
75021;SDS011;63583;49.976;20.182;2023-03-29T10:13:53;4.50;;;1.45;;
75021;SDS011;63583;49.976;20.182;2023-03-29T10:19:19;3.05;;;1.05;;
75021;SDS011;63583;49.976;20.182;2023-03-29T10:21:50;3.13;;;1.70;;
75021;SDS011;63583;49.976;20.182;2023-03-29T10:24:24;2.83;;;1.10;;
75021;SDS011;63583;49.976;20.182;2023-03-29T10:26:52;4.57;;;1.45;;
75021;SDS011;63583;49.976;20.182;2023-03-29T10:29:20;2.88;;;1.33;;
75021;SDS011;63583;49.976;20.182;2023-03-29T10:31:47;1.65;;;1.00;;
75021;SDS011;63583;49.976;20.182;2023-03-29T10:34:14;2.83;;;1.35;;
75021;SDS011;63583;49.976;20.182;2023-03-29T10:36:42;1.67;;;1.05;;
75021;SDS011;63583;49.976;20.182;2023-03-29T10:39:12;1.90;;;1.00;;
75021;SDS011;63583;49.976;20.182;2023-03-29T10:41:40;2.78;;;1.23;;
75021;SDS011;63583;49.976;20.182;2023-03-29T10:44:10;2.67;;;1.15;;
75021;SDS011;63583;49.976;20.182;2023-03-29T10:46:51;3.53;;;1.30;;
75021;SDS011;63583;49.976;20.182;2023-03-29T10:49:18;1.90;;;1.30;;
75021;SDS011;63583;49.976;20.182;2023-03-29T10:51:46;4.53;;;1.40;;
75021;SDS011;63583;49.976;20.182;2023-03-29T10:54:14;2.80;;;1.40;;
75021;SDS011;63583;49.976;20.182;2023-03-29T10:56:54;2.45;;;1.05;;
75021;SDS011;63583;49.976;20.182;2023-03-29T11:10:34;2.15;;;0.90;;
75021;SDS011;63583;49.976;20.182;2023-03-29T11:13:01;1.73;;;0.90;;
75021;SDS011;63583;49.976;20.182;2023-03-29T11:18:20;6.07;;;1.27;;
75021;SDS011;63583;49.976;20.182;2023-03-29T11:26:53;1.67;;;0.88;;
75021;SDS011;63583;49.976;20.182;2023-03-29T11:35:28;3.47;;;1.17;;
75021;SDS011;63583;49.976;20.182;2023-03-29T11:43:44;2.40;;;1.02;;
75021;SDS011;63583;49.976;20.182;2023-03-29T11:46:30;1.90;;;1.15;;
75021;SDS011;63583;49.976;20.182;2023-03-29T11:49:02;2.50;;;1.00;;
75021;SDS011;63583;49.976;20.182;2023-03-29T11:51:31;3.25;;;1.20;;
75021;SDS011;63583;49.976;20.182;2023-03-29T11:54:04;2.88;;;1.55;;
75021;SDS011;63583;49.976;20.182;2023-03-29T11:57:39;2.17;;;1.23;;
75021;SDS011;63583;49.976;20.182;2023-03-29T11:59:44;2.00;;;1.38;;
75021;SDS011;63583;49.976;20.182;2023-03-29T12:02:22;2.78;;;1.27;;
75021;SDS011;63583;49.976;20.182;2023-03-29T12:04:54;2.75;;;1.40;;
75021;SDS011;63583;49.976;20.182;2023-03-29T12:07:24;2.33;;;1.20;;
75021;SDS011;63583;49.976;20.182;2023-03-29T12:10:07;0.98;;;0.52;;
75021;SDS011;63583;49.976;20.182;2023-03-29T12:12:53;1.80;;;1.10;;
75021;SDS011;63583;49.976;20.182;2023-03-29T12:15:24;2.00;;;1.10;;
75021;SDS011;63583;49.976;20.182;2023-03-29T12:18:01;1.58;;;0.80;;
75021;SDS011;63583;49.976;20.182;2023-03-29T12:20:39;2.00;;;1.15;;
75021;SDS011;63583;49.976;20.182;2023-03-29T12:23:06;1.25;;;0.77;;
75021;SDS011;63583;49.976;20.182;2023-03-29T12:25:51;1.15;;;0.73;;
75021;SDS011;63583;49.976;20.182;2023-03-29T12:40:14;3.45;;;1.00;;
75021;SDS011;63583;49.976;20.182;2023-03-29T12:42:46;2.90;;;1.15;;
75021;SDS011;63583;49.976;20.182;2023-03-29T12:45:17;10.63;;;4.20;;
75021;SDS011;63583;49.976;20.182;2023-03-29T12:48:04;3.33;;;1.45;;
75021;SDS011;63583;49.976;20.182;2023-03-29T12:50:33;2.95;;;1.50;;
75021;SDS011;63583;49.976;20.182;2023-03-29T12:53:04;4.82;;;1.48;;
75021;SDS011;63583;49.976;20.182;2023-03-29T12:58:25;16.30;;;5.85;;
75021;SDS011;63583;49.976;20.182;2023-03-29T13:01:05;7.38;;;4.03;;
75021;SDS011;63583;49.976;20.182;2023-03-29T13:03:46;7.70;;;3.03;;
75021;SDS011;63583;49.976;20.182;2023-03-29T13:06:25;4.18;;;1.98;;
75021;SDS011;63583;49.976;20.182;2023-03-29T13:08:58;4.30;;;2.17;;
75021;SDS011;63583;49.976;20.182;2023-03-29T13:12:15;5.07;;;1.83;;
75021;SDS011;63583;49.976;20.182;2023-03-29T13:14:19;11.85;;;3.75;;
75021;SDS011;63583;49.976;20.182;2023-03-29T13:16:52;13.50;;;5.65;;
75021;SDS011;63583;49.976;20.182;2023-03-29T13:19:30;3.45;;;1.73;;
75021;SDS011;63583;49.976;20.182;2023-03-29T13:27:51;5.93;;;2.38;;
75021;SDS011;63583;49.976;20.182;2023-03-29T13:30:23;3.08;;;1.52;;
75021;SDS011;63583;49.976;20.182;2023-03-29T13:38:20;1.90;;;1.08;;
75021;SDS011;63583;49.976;20.182;2023-03-29T13:43:29;3.75;;;1.95;;
75021;SDS011;63583;49.976;20.182;2023-03-29T13:46:20;4.30;;;1.60;;
75021;SDS011;63583;49.976;20.182;2023-03-29T13:48:57;3.72;;;1.67;;
75021;SDS011;63583;49.976;20.182;2023-03-29T13:51:33;7.75;;;4.25;;
75021;SDS011;63583;49.976;20.182;2023-03-29T13:54:07;7.22;;;3.00;;
75021;SDS011;63583;49.976;20.182;2023-03-29T13:56:36;4.53;;;1.70;;
75021;SDS011;63583;49.976;20.182;2023-03-29T13:59:14;3.75;;;2.40;;
75021;SDS011;63583;49.976;20.182;2023-03-29T14:01:56;3.88;;;1.60;;
75021;SDS011;63583;49.976;20.182;2023-03-29T14:04:39;4.60;;;1.60;;
75021;SDS011;63583;49.976;20.182;2023-03-29T14:07:09;3.92;;;1.50;;
75021;SDS011;63583;49.976;20.182;2023-03-29T14:09:39;5.00;;;1.60;;
75021;SDS011;63583;49.976;20.182;2023-03-29T14:12:10;4.75;;;1.88;;
75021;SDS011;63583;49.976;20.182;2023-03-29T14:14:39;5.55;;;2.00;;
75021;SDS011;63583;49.976;20.182;2023-03-29T14:17:10;3.53;;;1.70;;
75021;SDS011;63583;49.976;20.182;2023-03-29T14:19:42;4.35;;;1.77;;
75021;SDS011;63583;49.976;20.182;2023-03-29T14:22:09;11.98;;;3.72;;
75021;SDS011;63583;49.976;20.182;2023-03-29T14:24:43;9.45;;;4.07;;
75021;SDS011;63583;49.976;20.182;2023-03-29T14:27:17;3.78;;;2.22;;
75021;SDS011;63583;49.976;20.182;2023-03-29T14:29:45;4.15;;;1.40;;
75021;SDS011;63583;49.976;20.182;2023-03-29T14:32:46;3.90;;;1.52;;
75021;SDS011;63583;49.976;20.182;2023-03-29T14:35:04;4.65;;;1.38;;
75021;SDS011;63583;49.976;20.182;2023-03-29T14:37:30;2.92;;;1.55;;
75021;SDS011;63583;49.976;20.182;2023-03-29T14:39:56;3.20;;;1.77;;
75021;SDS011;63583;49.976;20.182;2023-03-29T14:42:24;3.33;;;1.65;;
75021;SDS011;63583;49.976;20.182;2023-03-29T14:44:55;3.05;;;1.40;;
75021;SDS011;63583;49.976;20.182;2023-03-29T14:47:26;3.33;;;1.50;;
75021;SDS011;63583;49.976;20.182;2023-03-29T14:49:54;2.63;;;1.30;;
75021;SDS011;63583;49.976;20.182;2023-03-29T14:52:24;2.67;;;1.50;;
75021;SDS011;63583;49.976;20.182;2023-03-29T14:54:52;3.40;;;1.33;;
75021;SDS011;63583;49.976;20.182;2023-03-29T14:57:22;4.53;;;2.05;;
75021;SDS011;63583;49.976;20.182;2023-03-29T14:59:53;5.65;;;2.63;;
75021;SDS011;63583;49.976;20.182;2023-03-29T15:02:32;3.75;;;1.63;;
75021;SDS011;63583;49.976;20.182;2023-03-29T15:04:59;2.55;;;1.20;;
75021;SDS011;63583;49.976;20.182;2023-03-29T15:07:44;3.47;;;1.90;;
75021;SDS011;63583;49.976;20.182;2023-03-29T15:10:16;2.58;;;1.45;;
75021;SDS011;63583;49.976;20.182;2023-03-29T15:12:43;4.00;;;1.80;;
75021;SDS011;63583;49.976;20.182;2023-03-29T15:15:09;5.40;;;1.80;;
75021;SDS011;63583;49.976;20.182;2023-03-29T15:17:38;6.63;;;2.33;;
75021;SDS011;63583;49.976;20.182;2023-03-29T15:20:06;10.23;;;4.20;;
75021;SDS011;63583;49.976;20.182;2023-03-29T15:22:39;11.05;;;3.95;;
75021;SDS011;63583;49.976;20.182;2023-03-29T15:25:17;11.40;;;5.07;;
75021;SDS011;63583;49.976;20.182;2023-03-29T15:27:44;6.05;;;3.00;;
75021;SDS011;63583;49.976;20.182;2023-03-29T15:30:15;7.95;;;3.60;;
75021;SDS011;63583;49.976;20.182;2023-03-29T15:32:42;14.52;;;5.10;;
75021;SDS011;63583;49.976;20.182;2023-03-29T15:35:21;29.38;;;9.27;;
75021;SDS011;63583;49.976;20.182;2023-03-29T15:37:49;19.13;;;7.90;;
75021;SDS011;63583;49.976;20.182;2023-03-29T15:40:17;9.57;;;2.65;;
75021;SDS011;63583;49.976;20.182;2023-03-29T15:42:46;18.33;;;6.07;;
75021;SDS011;63583;49.976;20.182;2023-03-29T15:45:15;8.77;;;2.92;;
75021;SDS011;63583;49.976;20.182;2023-03-29T15:47:42;11.52;;;3.97;;
75021;SDS011;63583;49.976;20.182;2023-03-29T15:50:09;5.70;;;2.40;;
75021;SDS011;63583;49.976;20.182;2023-03-29T15:52:35;5.43;;;2.20;;
75021;SDS011;63583;49.976;20.182;2023-03-29T15:55:02;4.65;;;1.63;;
75021;SDS011;63583;49.976;20.182;2023-03-29T15:57:28;4.72;;;1.75;;
75021;SDS011;63583;49.976;20.182;2023-03-29T15:59:55;5.55;;;1.92;;
75021;SDS011;63583;49.976;20.182;2023-03-29T16:02:22;6.00;;;2.30;;
75021;SDS011;63583;49.976;20.182;2023-03-29T16:04:49;5.13;;;2.67;;
75021;SDS011;63583;49.976;20.182;2023-03-29T16:07:16;6.20;;;2.05;;
75021;SDS011;63583;49.976;20.182;2023-03-29T16:09:43;4.10;;;2.20;;
75021;SDS011;63583;49.976;20.182;2023-03-29T16:12:10;5.43;;;1.95;;
75021;SDS011;63583;49.976;20.182;2023-03-29T16:14:36;5.57;;;2.28;;
75021;SDS011;63583;49.976;20.182;2023-03-29T16:17:02;5.85;;;2.83;;
75021;SDS011;63583;49.976;20.182;2023-03-29T16:19:29;10.93;;;4.22;;
75021;SDS011;63583;49.976;20.182;2023-03-29T16:21:55;13.18;;;4.50;;
75021;SDS011;63583;49.976;20.182;2023-03-29T16:24:23;8.80;;;3.70;;
75021;SDS011;63583;49.976;20.182;2023-03-29T16:26:51;7.95;;;3.45;;
75021;SDS011;63583;49.976;20.182;2023-03-29T16:29:17;5.53;;;2.40;;
75021;SDS011;63583;49.976;20.182;2023-03-29T16:31:44;3.20;;;2.33;;
75021;SDS011;63583;49.976;20.182;2023-03-29T16:34:11;5.95;;;2.67;;
75021;SDS011;63583;49.976;20.182;2023-03-29T16:36:38;5.32;;;2.72;;
75021;SDS011;63583;49.976;20.182;2023-03-29T16:39:04;8.23;;;3.05;;
75021;SDS011;63583;49.976;20.182;2023-03-29T16:41:31;5.97;;;3.50;;
75021;SDS011;63583;49.976;20.182;2023-03-29T16:43:58;12.50;;;4.22;;
75021;SDS011;63583;49.976;20.182;2023-03-29T16:46:24;8.93;;;3.65;;